Hilario Ascasubi, Argentina
Current Conditions -  °F | °C
As of 1:00 AM on Friday 19 Dec 2014 (Local Time) from SAZM Reporting Station
Clear Clear  
Wind Chill: 66°   Ceiling: Unl
Heat Index: 66°   Visibility: 6mi
Dew Point: 59°   Wind: 14mph
Humidity: 78%   Direction: 340°NNW
Pressure: 29.56"   Gusts: NA
Location:  39.37°S, 62.65°W
Report Text: SAZM 190400Z 34012KT CAVOK 19/15 Q1001
Loading
Personal Weather Stations






























Interactive Weather Map New forecast layout! Learn more

10-Day Weather Forecast

Advertisements
Track Severe Weather on mobile